createdAt,value
2018-11-14T00:00:24.796Z,100.29
2018-11-14T00:01:24.370Z,100.42
2018-11-14T00:02:23.354Z,100.54
2018-11-14T00:03:25.157Z,100.57
2018-11-14T00:04:33.646Z,100.58
2018-11-14T00:05:25.648Z,100.63
2018-11-14T00:06:27.248Z,99.96
2018-11-14T00:07:27.906Z,100.03
2018-11-14T00:08:28.763Z,100.18
2018-11-14T00:09:29.312Z,100.33
2018-11-14T00:10:28.789Z,100.41
2018-11-14T00:11:30.157Z,99.96
2018-11-14T00:12:30.753Z,100.32
2018-11-14T00:13:31.342Z,100.51
2018-11-14T00:14:31.719Z,100.78
2018-11-14T00:15:32.621Z,100.97
2018-11-14T00:16:33.427Z,100.51
2018-11-14T00:17:33.984Z,100.71
2018-11-14T00:18:34.588Z,101.03
2018-11-14T00:19:35.154Z,101.17
2018-11-14T00:20:34.427Z,101.54
2018-11-14T00:21:35.827Z,101.53
2018-11-14T00:22:36.235Z,100.77
2018-11-14T00:23:36.693Z,101.11
2018-11-14T00:24:37.194Z,101.80
2018-11-14T00:25:36.576Z,101.63
2018-11-14T00:26:39.640Z,101.41
2018-11-14T00:27:38.111Z,101.38
2018-11-14T00:28:39.703Z,101.54
2018-11-14T00:29:40.609Z,101.37
2018-11-14T00:30:39.752Z,101.66
2018-11-14T00:31:41.156Z,101.61
2018-11-14T00:32:41.256Z,101.81
2018-11-14T00:33:41.758Z,101.72
2018-11-14T00:34:41.075Z,101.85
2018-11-14T00:35:41.539Z,101.39
2018-11-14T00:36:43.062Z,101.27
2018-11-14T00:37:43.479Z,101.97
2018-11-14T00:38:44.118Z,102.38
2018-11-14T00:39:44.525Z,102.09
2018-11-14T00:40:45.000Z,102.31
2018-11-14T00:41:45.355Z,102.44
2018-11-14T00:42:45.991Z,102.25
2018-11-14T00:43:45.552Z,102.11
2018-11-14T00:44:47.382Z,102.21
2018-11-14T00:45:47.905Z,101.99
2018-11-14T00:46:48.428Z,101.53
2018-11-14T00:47:48.864Z,101.61
2018-11-14T00:48:49.321Z,101.81
2018-11-14T00:49:49.795Z,101.67
2018-11-14T00:50:50.041Z,101.40
2018-11-14T00:51:49.483Z,101.11
2018-11-14T00:52:51.214Z,101.24
2018-11-14T00:52:59.374Z,101.52
2018-11-14T00:54:00.959Z,101.53
2018-11-14T00:55:01.296Z,101.51
2018-11-14T00:56:01.843Z,101.35
2018-11-14T00:57:02.530Z,101.08
2018-11-14T00:58:02.936Z,100.95
2018-11-14T00:59:03.360Z,100.86
2018-11-14T01:00:03.831Z,100.84
2018-11-14T01:01:03.239Z,101.04
2018-11-14T01:02:04.706Z,100.98
2018-11-14T01:03:05.178Z,100.89
2018-11-14T01:04:04.784Z,100.92
2018-11-14T01:05:06.506Z,101.21
2018-11-14T01:06:07.147Z,101.21
2018-11-14T01:07:07.650Z,101.60
2018-11-14T01:08:07.999Z,101.65
2018-11-14T01:09:09.379Z,101.82
2018-11-14T01:10:09.226Z,102.42
2018-11-14T01:11:09.794Z,102.35
2018-11-14T01:12:10.494Z,102.11
2018-11-14T01:13:09.712Z,102.00
2018-11-14T01:14:09.907Z,102.40
2018-11-14T01:15:11.448Z,102.24
2018-11-14T01:16:11.914Z,102.27
2018-11-14T01:17:12.333Z,101.94
2018-11-14T01:18:12.745Z,101.59
2018-11-14T01:19:13.104Z,101.64
2018-11-14T01:20:13.583Z,101.65
2018-11-14T01:21:14.031Z,101.95
2018-11-14T01:22:14.413Z,101.82
2018-11-14T01:23:15.212Z,102.05
2018-11-14T01:24:15.716Z,102.29
2018-11-14T01:25:16.023Z,101.88
2018-11-14T01:26:16.438Z,102.10
2018-11-14T01:27:16.884Z,101.81
2018-11-14T01:28:17.648Z,101.97
2018-11-14T01:29:18.064Z,102.21
2018-11-14T01:30:18.622Z,102.16
2018-11-14T01:31:19.329Z,101.83
2018-11-14T01:32:19.666Z,101.91
2018-11-14T01:33:20.238Z,101.87
2018-11-14T01:34:20.677Z,101.94
2018-11-14T01:35:21.196Z,102.33
2018-11-14T01:36:21.687Z,102.18
2018-11-14T01:37:22.235Z,102.07
2018-11-14T01:38:22.730Z,102.20
2018-11-14T01:38:31.212Z,102.28
2018-11-14T01:39:32.038Z,102.30
2018-11-14T01:40:32.627Z,102.18
2018-11-14T01:41:33.185Z,102.08
2018-11-14T01:42:33.767Z,102.06
2018-11-14T01:43:34.392Z,102.15
2018-11-14T01:44:34.815Z,102.39
2018-11-14T01:45:35.672Z,102.16
2018-11-14T01:46:36.051Z,102.09
2018-11-14T01:47:36.513Z,101.94
2018-11-14T01:48:36.094Z,101.94
2018-11-14T01:49:37.444Z,102.26
2018-11-14T01:50:37.862Z,102.31
2018-11-14T01:51:38.229Z,102.00
2018-11-14T01:52:38.796Z,101.87
2018-11-14T01:53:39.182Z,102.05
2018-11-14T01:54:39.806Z,102.19
2018-11-14T01:55:40.424Z,102.36
2018-11-14T01:56:40.838Z,102.45
2018-11-14T01:57:41.206Z,102.37
2018-11-14T01:58:41.700Z,102.67
2018-11-14T01:59:42.319Z,102.27
2018-11-14T02:00:42.732Z,102.63
2018-11-14T02:01:42.855Z,102.77
2018-11-14T02:02:43.416Z,102.89
2018-11-14T02:03:43.853Z,103.27
2018-11-14T02:04:45.389Z,103.27
2018-11-14T02:05:45.123Z,103.45
2018-11-14T02:06:46.057Z,103.21
2018-11-14T02:07:46.453Z,103.67
2018-11-14T02:08:47.115Z,103.88
2018-11-14T02:09:47.676Z,103.85
2018-11-14T02:10:48.151Z,103.68
2018-11-14T02:11:48.484Z,103.72
2018-11-14T02:12:48.807Z,103.68
2018-11-14T02:13:48.282Z,103.51
2018-11-14T02:14:49.643Z,103.42
2018-11-14T02:15:50.301Z,103.71
2018-11-14T02:16:50.471Z,103.91
2018-11-14T02:17:51.096Z,104.15
2018-11-14T02:18:51.633Z,104.32
2018-11-14T02:19:52.081Z,104.61
2018-11-14T02:20:52.446Z,104.39
2018-11-14T02:21:52.733Z,104.03
2018-11-14T02:22:53.112Z,103.56
2018-11-14T02:23:53.492Z,103.84
2018-11-14T02:24:54.103Z,103.73
2018-11-14T02:25:02.569Z,103.30
2018-11-14T02:26:04.003Z,103.25
2018-11-14T02:27:04.466Z,103.15
2018-11-14T02:28:05.208Z,102.97
2018-11-14T02:29:06.081Z,102.70
2018-11-14T02:30:06.501Z,102.46
2018-11-14T02:31:07.060Z,102.04
2018-11-14T02:32:07.475Z,102.58
2018-11-14T02:33:08.093Z,102.81
2018-11-14T02:34:08.717Z,102.83
2018-11-14T02:35:09.094Z,102.29
2018-11-14T02:36:09.686Z,101.90
2018-11-14T02:37:10.238Z,101.63
2018-11-14T02:38:10.695Z,102.08
2018-11-14T02:39:11.172Z,102.90
2018-11-14T02:40:11.578Z,103.09
2018-11-14T02:41:12.246Z,102.75
2018-11-14T02:42:12.767Z,102.87
2018-11-14T02:43:13.419Z,103.01
2018-11-14T02:44:14.028Z,103.03
2018-11-14T02:45:14.584Z,102.65
2018-11-14T02:46:15.203Z,102.96
2018-11-14T02:47:15.954Z,102.94
2018-11-14T02:48:16.666Z,103.26
2018-11-14T02:49:17.643Z,103.73
2018-11-14T02:50:18.178Z,103.74
2018-11-14T02:51:18.722Z,103.33
2018-11-14T02:52:18.864Z,103.18
2018-11-14T02:53:18.163Z,103.50
2018-11-14T02:54:19.530Z,103.59
2018-11-14T02:55:19.874Z,103.18
2018-11-14T02:56:20.393Z,103.23
2018-11-14T02:57:20.941Z,103.33
2018-11-14T02:58:21.618Z,103.17
2018-11-14T02:59:21.921Z,103.48
2018-11-14T03:00:22.793Z,103.78
2018-11-14T03:01:23.410Z,103.89
2018-11-14T03:02:23.184Z,104.08
2018-11-14T03:03:24.181Z,104.17
2018-11-14T03:04:24.641Z,104.12
2018-11-14T03:05:25.087Z,103.98
2018-11-14T03:06:25.668Z,103.58
2018-11-14T03:07:26.176Z,103.43
2018-11-14T03:08:26.602Z,103.50
2018-11-14T03:09:26.949Z,103.64
2018-11-14T03:10:27.498Z,103.68
2018-11-14T03:11:27.941Z,103.67
2018-11-14T03:11:36.285Z,103.80
2018-11-14T03:12:37.875Z,103.81
2018-11-14T03:13:37.135Z,103.48
2018-11-14T03:14:38.566Z,102.72
2018-11-14T03:15:38.973Z,103.32
2018-11-14T03:16:39.563Z,103.70
2018-11-14T03:17:39.998Z,103.61
2018-11-14T03:18:40.645Z,103.70
2018-11-14T03:19:41.165Z,103.64
2018-11-14T03:20:40.514Z,103.68
2018-11-14T03:21:42.017Z,103.61
2018-11-14T03:22:42.684Z,103.73
2018-11-14T03:23:43.032Z,103.66
2018-11-14T03:24:43.499Z,103.82
2018-11-14T03:25:43.886Z,103.96
2018-11-14T03:26:44.234Z,104.03
2018-11-14T03:27:45.056Z,104.02
2018-11-14T03:28:45.714Z,103.75
2018-11-14T03:29:46.218Z,103.77
2018-11-14T03:30:45.279Z,103.72
2018-11-14T03:31:46.682Z,103.88
2018-11-14T03:32:47.147Z,103.78
2018-11-14T03:33:47.962Z,104.05
2018-11-14T03:34:48.661Z,104.42
2018-11-14T03:35:49.316Z,104.08
2018-11-14T03:36:49.725Z,103.83
2018-11-14T03:37:50.204Z,103.97
2018-11-14T03:38:50.646Z,104.09
2018-11-14T03:39:51.052Z,104.55
2018-11-14T03:40:51.751Z,104.62
2018-11-14T03:41:51.088Z,104.60
2018-11-14T03:42:52.739Z,104.50
2018-11-14T03:43:53.027Z,104.10
2018-11-14T03:44:53.411Z,104.19
2018-11-14T03:45:53.802Z,104.33
2018-11-14T03:46:54.316Z,104.46
2018-11-14T03:47:54.881Z,104.54
2018-11-14T03:48:54.924Z,104.78
2018-11-14T03:49:55.325Z,104.74
2018-11-14T03:50:55.764Z,104.90
2018-11-14T03:51:56.202Z,104.75
2018-11-14T03:52:56.802Z,105.11
2018-11-14T03:53:57.539Z,105.15
2018-11-14T03:54:57.899Z,104.91
2018-11-14T03:55:58.304Z,104.70
2018-11-14T03:56:58.699Z,104.85
2018-11-14T03:57:59.506Z,104.64
2018-11-14T03:58:59.949Z,104.49
2018-11-14T04:00:00.357Z,104.15
2018-11-14T04:00:08.432Z,104.00
2018-11-14T04:01:09.837Z,103.99
2018-11-14T04:02:09.892Z,103.98
2018-11-14T04:03:10.453Z,104.08
2018-11-14T04:04:10.904Z,104.28
2018-11-14T04:05:11.527Z,104.04
2018-11-14T04:06:11.845Z,103.72
2018-11-14T04:07:12.057Z,103.59
2018-11-14T04:08:12.757Z,103.82
2018-11-14T04:09:12.208Z,103.93
2018-11-14T04:10:12.916Z,103.79
2018-11-14T04:11:14.279Z,103.71
2018-11-14T04:12:14.684Z,103.55
2018-11-14T04:13:15.229Z,103.56
2018-11-14T04:14:15.795Z,103.49
2018-11-14T04:15:16.206Z,102.28
2018-11-14T04:16:16.545Z,102.09
2018-11-14T04:17:16.898Z,101.90
2018-11-14T04:18:17.710Z,101.93
2018-11-14T04:19:18.231Z,101.44
2018-11-14T04:20:18.662Z,101.74
2018-11-14T04:21:19.095Z,101.88
2018-11-14T04:22:19.633Z,102.11
2018-11-14T04:23:20.239Z,101.65
2018-11-14T04:24:20.754Z,101.85
2018-11-14T04:25:21.335Z,101.62
2018-11-14T04:26:21.800Z,101.51
2018-11-14T04:27:22.399Z,101.14
2018-11-14T04:28:23.240Z,101.16
2018-11-14T04:29:23.860Z,101.61
2018-11-14T04:30:23.835Z,101.74
2018-11-14T04:31:24.311Z,101.54
2018-11-14T04:32:24.669Z,101.91
2018-11-14T04:33:25.141Z,102.48
2018-11-14T04:34:26.102Z,102.56
2018-11-14T04:35:26.598Z,102.52
2018-11-14T04:36:26.982Z,102.48
2018-11-14T04:37:27.675Z,102.90
2018-11-14T04:38:28.102Z,102.95
2018-11-14T04:39:28.676Z,102.88
2018-11-14T04:40:29.121Z,102.71
2018-11-14T04:41:28.570Z,102.52
2018-11-14T04:42:30.039Z,102.73
2018-11-14T04:43:30.651Z,102.65
2018-11-14T04:44:31.114Z,102.74
2018-11-14T04:45:31.651Z,102.79
2018-11-14T04:46:33.118Z,102.51
2018-11-14T04:47:32.587Z,102.43
2018-11-14T04:47:40.989Z,102.63
2018-11-14T04:48:42.323Z,102.61
2018-11-14T04:49:42.958Z,102.37
2018-11-14T04:50:43.268Z,103.07
2018-11-14T04:51:43.621Z,103.41
2018-11-14T04:52:44.218Z,103.30
2018-11-14T04:53:44.655Z,103.52
2018-11-14T04:54:45.404Z,103.38
2018-11-14T04:55:45.920Z,103.51
2018-11-14T04:56:46.359Z,103.30
2018-11-14T04:57:46.771Z,103.22
2018-11-14T04:58:47.695Z,103.55
2018-11-14T04:59:48.174Z,103.04
2018-11-14T05:00:48.552Z,103.20
2018-11-14T05:01:48.940Z,103.61
2018-11-14T05:02:49.328Z,103.46
2018-11-14T05:03:49.968Z,103.46
2018-11-14T05:04:50.436Z,103.38
2018-11-14T05:05:51.057Z,103.62
2018-11-14T05:06:51.522Z,103.61
2018-11-14T05:07:51.960Z,103.61
2018-11-14T05:08:52.411Z,103.45
2018-11-14T05:09:52.822Z,103.18
2018-11-14T05:10:53.236Z,103.29
2018-11-14T05:11:53.610Z,103.01
2018-11-14T05:12:54.120Z,102.92
2018-11-14T05:13:53.590Z,102.91
2018-11-14T05:14:54.998Z,102.84
2018-11-14T05:15:55.589Z,103.04
2018-11-14T05:16:54.898Z,103.20
2018-11-14T05:17:56.293Z,103.22
2018-11-14T05:18:57.721Z,103.28
2018-11-14T05:19:57.146Z,103.39
2018-11-14T05:20:57.550Z,103.51
2018-11-14T05:21:57.915Z,103.54
2018-11-14T05:22:58.448Z,103.58
2018-11-14T05:23:58.911Z,103.78
2018-11-14T05:24:59.684Z,103.83
2018-11-14T05:25:59.972Z,103.86
2018-11-14T05:27:00.446Z,103.99
2018-11-14T05:28:01.177Z,104.10
2018-11-14T05:29:01.674Z,104.02
2018-11-14T05:30:02.158Z,104.02
2018-11-14T05:31:02.719Z,104.03
2018-11-14T05:32:03.317Z,103.72
2018-11-14T05:33:03.019Z,103.64
2018-11-14T05:34:04.742Z,103.70
2018-11-14T05:34:24.753Z,103.52
2018-11-14T05:35:25.423Z,103.53
2018-11-14T05:36:26.096Z,103.22
2018-11-14T05:37:26.615Z,102.58
2018-11-14T05:38:27.293Z,102.71
2018-11-14T05:39:27.159Z,103.00
2018-11-14T05:40:29.075Z,103.16
2018-11-14T05:41:29.110Z,102.92
2018-11-14T05:42:29.659Z,103.03
2018-11-14T05:43:30.339Z,102.93
2018-11-14T05:44:30.767Z,102.89
2018-11-14T05:45:31.335Z,102.66
2018-11-14T05:46:30.656Z,102.03
2018-11-14T05:47:32.077Z,101.88
2018-11-14T05:48:32.544Z,101.89
2018-11-14T05:49:33.009Z,101.94
2018-11-14T05:50:33.779Z,102.05
2018-11-14T05:51:34.394Z,101.98
2018-11-14T05:52:35.287Z,101.63
2018-11-14T05:53:35.882Z,102.14
2018-11-14T05:54:36.775Z,102.29
2018-11-14T05:55:37.576Z,102.41
2018-11-14T05:56:38.065Z,102.33
2018-11-14T05:57:38.702Z,102.13
2018-11-14T05:58:39.611Z,101.99
2018-11-14T05:59:40.185Z,102.26
2018-11-14T06:00:40.729Z,102.37
2018-11-14T06:01:41.292Z,102.05
2018-11-14T06:02:41.890Z,101.87
2018-11-14T06:03:42.379Z,102.08
2018-11-14T06:04:42.967Z,102.16
2018-11-14T06:05:43.462Z,102.15
2018-11-14T06:06:42.782Z,102.14
2018-11-14T06:07:44.405Z,102.25
2018-11-14T06:08:44.971Z,101.94
2018-11-14T06:09:45.470Z,102.39
2018-11-14T06:10:45.921Z,102.61
2018-11-14T06:11:46.675Z,102.41
2018-11-14T06:12:46.209Z,102.68
2018-11-14T06:13:48.006Z,102.88
2018-11-14T06:14:48.356Z,103.04
2018-11-14T06:15:49.210Z,103.23
2018-11-14T06:16:49.623Z,103.27
2018-11-14T06:17:49.977Z,103.12
2018-11-14T06:18:50.556Z,103.00
2018-11-14T06:19:51.055Z,103.05
2018-11-14T06:20:51.743Z,103.13
2018-11-14T06:23:49.124Z,102.88
2018-11-14T06:24:48.595Z,102.90
2018-11-14T06:25:50.281Z,102.82
2018-11-14T06:26:50.599Z,102.60
2018-11-14T06:27:51.549Z,103.00
2018-11-14T06:28:52.984Z,102.79
2018-11-14T06:29:52.642Z,102.65
2018-11-14T06:30:52.011Z,102.91
2018-11-14T06:31:52.580Z,102.87
2018-11-14T06:32:54.027Z,102.94
2018-11-14T06:33:54.410Z,103.00
2018-11-14T06:34:54.814Z,102.77
2018-11-14T06:35:55.485Z,102.77
2018-11-14T06:36:56.062Z,102.59
2018-11-14T06:37:56.461Z,102.24
2018-11-14T06:38:57.114Z,102.37
2018-11-14T06:39:57.574Z,102.75
2018-11-14T06:40:58.029Z,102.81
2018-11-14T06:41:58.788Z,102.76
2018-11-14T06:42:59.220Z,102.88
2018-11-14T06:43:59.540Z,102.57
2018-11-14T06:44:59.927Z,102.36
2018-11-14T06:46:00.085Z,102.17
2018-11-14T06:47:00.527Z,102.17
2018-11-14T06:48:01.173Z,102.13
2018-11-14T06:49:33.480Z,101.91
2018-11-14T06:50:35.050Z,101.90
2018-11-14T06:51:35.849Z,101.81
2018-11-14T06:52:36.444Z,101.93
2018-11-14T06:53:36.939Z,101.85
2018-11-14T06:54:37.422Z,101.77
2018-11-14T06:55:37.932Z,102.01
2018-11-14T06:56:38.428Z,102.39
2018-11-14T06:57:39.065Z,102.29
2018-11-14T06:58:39.683Z,102.41
2018-11-14T06:59:39.164Z,102.30
2018-11-14T07:00:39.507Z,102.43
2018-11-14T07:01:41.057Z,102.26
2018-11-14T07:02:41.560Z,102.56
2018-11-14T07:03:41.984Z,102.41
2018-11-14T07:04:42.385Z,102.40
2018-11-14T07:05:42.857Z,102.41
2018-11-14T07:06:42.589Z,102.47
2018-11-14T07:07:44.024Z,102.61
2018-11-14T07:08:44.526Z,102.77
2018-11-14T07:09:45.331Z,102.94
2018-11-14T07:10:45.759Z,103.08
2018-11-14T07:11:45.177Z,102.61
2018-11-14T07:12:46.435Z,102.32
2018-11-14T07:13:46.840Z,102.78
2018-11-14T07:14:47.378Z,102.61
2018-11-14T07:15:47.385Z,102.60
2018-11-14T07:16:47.865Z,102.62
2018-11-14T07:17:48.600Z,102.20
2018-11-14T07:18:47.993Z,102.35
2018-11-14T07:19:49.518Z,102.81
2018-11-14T07:20:49.932Z,102.63
2018-11-14T07:21:50.382Z,102.81
2018-11-14T07:22:50.854Z,102.98
2018-11-14T07:23:51.334Z,103.02
2018-11-14T07:24:50.755Z,102.89
2018-11-14T07:25:52.449Z,102.78
2018-11-14T07:26:54.606Z,103.02
2018-11-14T07:27:53.385Z,102.98
2018-11-14T07:28:53.764Z,102.94
2018-11-14T07:29:54.240Z,103.10
2018-11-14T07:30:54.608Z,103.21
2018-11-14T07:31:55.099Z,103.02
2018-11-14T07:32:55.536Z,102.66
2018-11-14T07:33:55.908Z,102.44
2018-11-14T07:34:56.367Z,102.38
2018-11-14T07:35:56.778Z,102.76
2018-11-14T07:36:57.597Z,102.67
2018-11-14T07:37:58.273Z,102.64
2018-11-14T07:38:57.905Z,102.64
2018-11-14T07:39:59.361Z,102.42
2018-11-14T07:40:07.728Z,102.41
2018-11-14T07:41:08.552Z,102.41
2018-11-14T07:42:09.006Z,102.13
2018-11-14T07:43:09.358Z,102.03
2018-11-14T07:44:09.739Z,101.98
2018-11-14T07:45:10.128Z,102.23
2018-11-14T07:46:10.880Z,102.36
2018-11-14T07:47:11.385Z,101.83
2018-11-14T07:48:11.772Z,101.90
2018-11-14T07:49:12.343Z,102.23
2018-11-14T07:50:12.085Z,102.15
2018-11-14T07:51:12.525Z,102.60
2018-11-14T07:52:13.970Z,102.70
2018-11-14T07:53:14.438Z,102.28
2018-11-14T07:54:14.894Z,102.02
2018-11-14T07:55:15.475Z,102.34
2018-11-14T07:56:15.833Z,102.59
2018-11-14T07:57:16.242Z,102.64
2018-11-14T07:58:16.835Z,102.64
2018-11-14T07:59:17.301Z,102.44
2018-11-14T08:00:17.739Z,102.67
2018-11-14T08:01:18.644Z,103.00
2018-11-14T08:02:19.237Z,102.63
2018-11-14T08:03:18.511Z,102.02
2018-11-14T08:04:20.031Z,102.34
2018-11-14T08:05:20.636Z,102.47
2018-11-14T08:06:21.261Z,102.80
2018-11-14T08:07:21.695Z,103.07
2018-11-14T08:08:22.309Z,103.26
2018-11-14T08:09:21.626Z,103.28
2018-11-14T08:10:23.003Z,103.46
2018-11-14T08:11:23.346Z,103.34
2018-11-14T08:12:23.982Z,103.30
2018-11-14T08:13:24.545Z,103.34
2018-11-14T08:14:24.974Z,103.32
2018-11-14T08:15:25.031Z,103.13
2018-11-14T08:16:25.644Z,102.99
2018-11-14T08:17:26.062Z,103.10
2018-11-14T08:18:26.910Z,103.35
2018-11-14T08:19:27.574Z,103.45
2018-11-14T08:20:27.953Z,103.14
2018-11-14T08:21:28.719Z,102.91
2018-11-14T08:22:29.152Z,102.98
2018-11-14T08:23:29.693Z,102.88
2018-11-14T08:24:30.090Z,103.00
2018-11-14T08:25:30.587Z,102.96
2018-11-14T08:26:31.049Z,103.12
2018-11-14T08:27:31.509Z,102.51
2018-11-14T08:27:39.923Z,102.71
2018-11-14T08:28:41.306Z,102.73
2018-11-14T08:29:41.870Z,102.87
2018-11-14T08:30:42.318Z,103.04
2018-11-14T08:31:41.571Z,102.86
2018-11-14T08:32:43.093Z,102.61
2018-11-14T08:33:43.614Z,102.62
2018-11-14T08:34:44.103Z,102.69
2018-11-14T08:35:44.764Z,102.54
2018-11-14T08:36:45.419Z,102.25
2018-11-14T08:37:46.158Z,102.59
2018-11-14T08:38:46.586Z,102.41
2018-11-14T08:39:47.028Z,101.92
2018-11-14T08:40:47.632Z,102.21
2018-11-14T08:41:47.153Z,102.21
2018-11-14T08:42:48.729Z,102.25
2018-11-14T08:43:49.192Z,102.45
2018-11-14T08:44:49.629Z,102.28
2018-11-14T08:45:50.215Z,102.17
2018-11-14T08:46:50.617Z,102.16
2018-11-14T08:47:51.169Z,102.39
2018-11-14T08:48:51.590Z,101.63
2018-11-14T08:49:52.099Z,101.70
2018-11-14T08:50:52.787Z,101.34
2018-11-14T08:51:53.527Z,101.31
2018-11-14T08:52:54.007Z,101.33
2018-11-14T08:53:54.398Z,101.06
2018-11-14T08:54:54.633Z,101.48
2018-11-14T08:55:54.800Z,101.51
2018-11-14T08:56:55.451Z,101.42
2018-11-14T08:57:56.043Z,101.48
2018-11-14T08:58:56.584Z,101.47
2018-11-14T08:59:57.168Z,101.36
2018-11-14T09:00:58.571Z,101.06
2018-11-14T09:01:58.040Z,101.08
2018-11-14T09:02:58.525Z,101.22
2018-11-14T09:03:58.848Z,101.41
2018-11-14T09:04:58.291Z,101.16
2018-11-14T09:05:59.745Z,100.93
2018-11-14T09:07:00.208Z,101.21
2018-11-14T09:08:00.231Z,101.14
2018-11-14T09:09:00.878Z,101.56
2018-11-14T09:10:01.430Z,101.43
2018-11-14T09:11:01.900Z,101.00
2018-11-14T09:12:01.602Z,100.90
2018-11-14T09:13:03.426Z,101.20
2018-11-14T09:14:02.977Z,101.39
2018-11-14T09:15:04.603Z,101.40
2018-11-14T09:16:03.902Z,101.43
2018-11-14T09:17:05.283Z,101.62
2018-11-14T09:17:27.392Z,101.24
2018-11-14T09:18:27.511Z,101.25
2018-11-14T09:19:28.025Z,101.29
2018-11-14T09:20:28.451Z,100.52
2018-11-14T09:21:29.853Z,100.09
2018-11-14T09:22:30.375Z,100.67
2018-11-14T09:23:31.110Z,100.15
2018-11-14T09:24:31.558Z,100.38
2018-11-14T09:25:32.181Z,100.62
2018-11-14T09:26:32.659Z,100.50
2018-11-14T09:27:32.994Z,100.34
2018-11-14T09:28:33.819Z,100.48
2018-11-14T09:29:34.272Z,100.71
2018-11-14T09:30:34.674Z,100.62
2018-11-14T09:31:35.565Z,99.68
2018-11-14T09:32:35.978Z,99.63
2018-11-14T09:33:36.373Z,99.64
2018-11-14T09:34:36.794Z,99.68
2018-11-14T09:35:36.158Z,99.61
2018-11-14T09:36:37.582Z,100.09
2018-11-14T09:37:38.182Z,100.58
2018-11-14T09:38:38.639Z,100.21
2018-11-14T09:39:39.141Z,99.92
2018-11-14T09:40:39.620Z,99.43
2018-11-14T09:41:39.001Z,99.25
2018-11-14T09:42:40.326Z,99.48
2018-11-14T09:43:40.884Z,99.14
2018-11-14T09:44:40.421Z,98.99
2018-11-14T09:45:41.334Z,98.73
2018-11-14T09:46:42.797Z,98.99
2018-11-14T09:47:43.178Z,99.46
2018-11-14T09:48:44.075Z,99.40
2018-11-14T09:49:44.477Z,99.19
2018-11-14T09:50:44.989Z,99.36
2018-11-14T09:51:45.647Z,99.06
2018-11-14T09:52:46.162Z,98.77
2018-11-14T09:53:45.995Z,99.12
2018-11-14T09:54:47.374Z,99.02
2018-11-14T09:55:48.220Z,99.33
2018-11-14T09:56:48.737Z,99.43
2018-11-14T09:57:48.022Z,99.89
2018-11-14T09:58:49.616Z,99.81
2018-11-14T09:59:48.950Z,99.28
2018-11-14T10:00:50.479Z,99.74
2018-11-14T10:01:50.862Z,99.93
2018-11-14T10:02:51.675Z,99.53
2018-11-14T10:03:51.021Z,99.42
2018-11-14T10:04:51.828Z,99.66
2018-11-14T10:05:53.480Z,99.48
2018-11-14T10:06:53.823Z,99.33
2018-11-14T10:07:54.300Z,100.08
2018-11-14T10:08:53.650Z,99.54
2018-11-14T10:09:55.067Z,99.68
2018-11-14T10:10:55.876Z,99.17
2018-11-14T10:11:55.467Z,98.99
2018-11-14T10:12:56.902Z,98.72
2018-11-14T10:13:06.244Z,99.00
2018-11-14T10:14:06.026Z,99.01
2018-11-14T10:15:05.414Z,99.35
2018-11-14T10:16:06.844Z,100.18
2018-11-14T10:17:07.304Z,100.03
2018-11-14T10:18:07.772Z,99.85
2018-11-14T10:19:08.133Z,99.69
2018-11-14T10:20:08.419Z,99.73
2018-11-14T10:21:09.131Z,99.85
2018-11-14T10:22:07.971Z,99.93
2018-11-14T10:23:09.422Z,100.22
2018-11-14T10:24:09.880Z,99.81
2018-11-14T10:25:10.537Z,99.58
2018-11-14T10:26:11.212Z,99.74
2018-11-14T10:27:11.607Z,100.02
2018-11-14T10:28:12.366Z,99.83
2018-11-14T10:29:12.974Z,100.06
2018-11-14T10:30:13.921Z,100.06
2018-11-14T10:31:14.670Z,99.38
2018-11-14T10:32:15.243Z,98.93
2018-11-14T10:33:15.970Z,99.05
2018-11-14T10:34:16.432Z,99.07
2018-11-14T10:35:16.948Z,99.54
2018-11-14T10:36:17.344Z,99.08
2018-11-14T10:37:17.515Z,99.42
2018-11-14T10:38:17.845Z,99.20
2018-11-14T10:39:18.522Z,98.45
2018-11-14T10:40:19.028Z,98.18
2018-11-14T10:41:19.626Z,97.78
2018-11-14T10:42:19.706Z,97.44
2018-11-14T10:43:20.215Z,97.65
2018-11-14T10:44:20.776Z,97.16
2018-11-14T10:45:21.168Z,97.42
2018-11-14T10:46:20.538Z,96.91
2018-11-14T10:47:22.007Z,96.93
2018-11-14T10:48:22.489Z,96.75
2018-11-14T10:49:23.065Z,95.83
2018-11-14T10:50:23.482Z,96.32
2018-11-14T10:51:23.965Z,96.66
2018-11-14T10:52:24.398Z,96.83
2018-11-14T10:53:24.852Z,96.86
2018-11-14T10:54:25.416Z,97.38
2018-11-14T10:55:25.831Z,97.13
2018-11-14T10:56:26.509Z,97.29
2018-11-14T10:57:27.452Z,97.82
2018-11-14T10:58:27.960Z,97.41
2018-11-14T10:59:27.489Z,97.36
2018-11-14T11:00:28.921Z,97.33
2018-11-14T11:01:29.467Z,97.47
2018-11-14T11:02:30.121Z,97.67
2018-11-14T11:02:38.687Z,98.54
2018-11-14T11:03:40.131Z,98.49
2018-11-14T11:04:40.677Z,98.21
2018-11-14T11:05:40.972Z,98.85
2018-11-14T11:06:41.370Z,99.32
2018-11-14T11:07:41.759Z,98.56
2018-11-14T11:08:42.183Z,99.35
2018-11-14T11:09:41.456Z,99.11
2018-11-14T11:10:42.875Z,98.97
2018-11-14T11:11:43.333Z,99.09
2018-11-14T11:12:43.823Z,98.67
2018-11-14T11:13:44.712Z,98.44
2018-11-14T11:14:44.050Z,98.00
2018-11-14T11:15:45.448Z,98.10
2018-11-14T11:16:45.840Z,97.85
2018-11-14T11:17:46.285Z,97.72
2018-11-14T11:18:46.902Z,97.28
2018-11-14T11:19:46.591Z,97.42
2018-11-14T11:20:48.035Z,97.83
2018-11-14T11:21:48.434Z,98.08
2018-11-14T11:22:48.926Z,97.82
2018-11-14T11:23:49.624Z,97.78
2018-11-14T11:24:49.921Z,98.14
2018-11-14T11:25:50.515Z,98.13
2018-11-14T11:26:51.357Z,98.62
2018-11-14T11:27:51.569Z,99.28
2018-11-14T11:28:52.105Z,99.64
2018-11-14T11:29:52.499Z,99.81
2018-11-14T11:30:53.087Z,100.29
2018-11-14T11:31:52.221Z,100.18
2018-11-14T11:32:52.589Z,99.96
2018-11-14T11:33:53.933Z,99.95
2018-11-14T11:34:54.911Z,100.43
2018-11-14T11:35:55.365Z,100.21
2018-11-14T11:36:55.718Z,100.21
2018-11-14T11:37:56.144Z,100.25
2018-11-14T11:38:55.506Z,99.99
2018-11-14T11:39:56.846Z,99.61
2018-11-14T11:40:57.252Z,99.53
2018-11-14T11:41:57.821Z,98.87
2018-11-14T11:42:58.299Z,98.84
2018-11-14T11:43:58.742Z,99.00
2018-11-14T11:44:59.396Z,98.89
2018-11-14T11:45:59.779Z,99.13
2018-11-14T11:47:00.623Z,98.63
2018-11-14T11:48:01.063Z,98.36
2018-11-14T11:49:01.707Z,98.01
2018-11-14T11:50:02.017Z,98.04
2018-11-14T11:51:02.457Z,97.79
2018-11-14T11:52:01.459Z,97.42
2018-11-14T11:53:02.980Z,97.08
2018-11-14T11:53:11.710Z,97.22
2018-11-14T11:54:12.271Z,97.26
2018-11-14T11:55:12.825Z,96.75
2018-11-14T11:56:13.230Z,97.50
2018-11-14T11:57:13.731Z,97.28
2018-11-14T11:58:15.485Z,96.70
2018-11-14T11:59:14.823Z,96.74
2018-11-14T12:00:15.351Z,96.36
2018-11-14T12:01:14.682Z,96.39
2018-11-14T12:02:16.265Z,96.23
2018-11-14T12:03:15.905Z,96.62
2018-11-14T12:04:17.357Z,97.15
2018-11-14T12:05:18.273Z,97.04
2018-11-14T12:06:19.371Z,97.46
2018-11-14T12:07:18.402Z,97.67
2018-11-14T12:08:19.196Z,97.43
2018-11-14T12:09:19.408Z,97.90
2018-11-14T12:10:20.030Z,98.09
2018-11-14T12:11:20.449Z,97.95
2018-11-14T12:12:20.952Z,97.77
2018-11-14T12:13:23.050Z,97.70
2018-11-14T12:14:22.355Z,97.44
2018-11-14T12:15:22.815Z,97.15
2018-11-14T12:16:24.199Z,97.29
2018-11-14T12:17:25.106Z,97.11
2018-11-14T12:18:24.546Z,96.99
2018-11-14T12:19:24.630Z,96.86
2018-11-14T12:20:26.994Z,96.59
2018-11-14T12:21:27.013Z,96.67
2018-11-14T12:22:26.997Z,96.86
2018-11-14T12:23:25.983Z,96.70
2018-11-14T12:24:26.806Z,96.72
2018-11-14T12:25:27.370Z,96.46
2018-11-14T12:26:29.093Z,96.98
2018-11-14T12:27:29.655Z,96.86
2018-11-14T12:28:29.063Z,96.61
2018-11-14T12:29:30.491Z,96.68
2018-11-14T12:30:30.850Z,96.63
2018-11-14T12:31:30.108Z,96.33